Time;durP1;ratioP1;P1;durP2;ratioP2;P2;SDS_P1;SDS_P2;PMS_P1;PMS_P2;Temp;Humidity;BMP_temperature;BMP_pressure;BME280_temperature;BME280_humidity;BME280_pressure;Samples;Min_cycle;Max_cycle;Signal;HPM_P1;HPM_P2
2022/10/24 00:00:17;;;;;;;33.10;19.50;;;;;;;12.17;100.00;100269.06;3448698;84;99523;-86
2022/10/24 00:05:18;;;;;;;26.67;17.63;;;;;;;12.15;100.00;100280.48;3476306;84;25792;-86
2022/10/24 00:10:20;;;;;;;30.82;18.05;;;;;;;12.15;100.00;100284.62;3454093;84;99068;-86
2022/10/24 00:15:21;;;;;;;31.17;19.43;;;;;;;12.15;100.00;100272.81;3458577;84;26381;-85
2022/10/24 00:20:21;;;;;;;25.20;16.13;;;;;;;12.15;100.00;100275.56;3451305;84;99159;-86
2022/10/24 00:25:22;;;;;;;25.60;17.10;;;;;;;12.16;100.00;100261.36;3469374;84;26424;-85
2022/10/24 00:30:23;;;;;;;28.77;18.23;;;;;;;12.17;100.00;100263.55;3466940;84;99536;-86
2022/10/24 00:35:24;;;;;;;25.73;16.33;;;;;;;12.20;100.00;100266.88;3459341;84;33234;-85
2022/10/24 00:40:25;;;;;;;25.87;15.93;;;;;;;12.21;100.00;100269.25;3468392;84;99180;-85
2022/10/24 00:45:47;;;;;;;26.37;15.07;;;;;;;12.23;100.00;100270.25;3473652;84;34306;-85
2022/10/24 00:50:52;;;;;;;25.93;15.50;;;;;;;12.25;100.00;100268.67;3462524;84;99195;-86
2022/10/24 00:55:57;;;;;;;23.53;15.23;;;;;;;12.29;100.00;100285.23;3465898;84;26353;-86
2022/10/24 01:00:59;;;;;;;22.00;14.47;;;;;;;12.31;100.00;100263.58;3445804;84;99060;-85
2022/10/24 01:06:23;;;;;;;25.80;15.93;;;;;;;12.34;100.00;100258.64;3471415;84;26499;-85
2022/10/24 01:11:46;;;;;;;23.90;15.13;;;;;;;12.36;100.00;100240.50;3466748;84;26515;-86
2022/10/24 01:17:04;;;;;;;29.63;16.03;;;;;;;12.38;100.00;100225.71;3456969;84;99431;-85
2022/10/24 01:22:15;;;;;;;24.40;14.47;;;;;;;12.40;100.00;100223.36;3482828;84;26527;-86
2022/10/24 01:27:27;;;;;;;24.27;14.53;;;;;;;12.41;100.00;100209.76;3451509;84;99523;-85
2022/10/24 01:33:02;;;;;;;26.33;14.30;;;;;;;12.42;100.00;100209.17;3477887;84;25982;-86
2022/10/24 01:38:27;;;;;;;26.63;15.47;;;;;;;12.44;100.00;100210.94;3463396;84;99248;-86
2022/10/24 01:43:51;;;;;;;23.77;14.90;;;;;;;12.31;100.00;100173.28;3460150;84;26104;-87
2022/10/24 01:48:58;;;;;;;25.53;14.37;;;;;;;12.44;100.00;100175.06;3469995;82;99249;-86
2022/10/24 01:53:59;;;;;;;21.93;14.23;;;;;;;12.33;100.00;100167.38;3470742;84;25851;-86
2022/10/24 01:59:30;;;;;;;23.85;14.55;;;;;;;12.46;100.00;100182.34;3466599;82;99594;-86
2022/10/24 02:04:33;;;;;;;23.12;13.20;;;;;;;12.48;100.00;100175.25;3474319;84;25989;-85
2022/10/24 02:09:37;;;;;;;20.57;12.98;;;;;;;12.46;100.00;100157.50;3463843;84;99605;-85
2022/10/24 02:14:59;;;;;;;23.00;14.28;;;;;;;12.46;100.00;100166.59;3447086;84;26396;-85
2022/10/24 02:20:00;;;;;;;20.97;12.78;;;;;;;12.49;100.00;100189.23;3468646;84;98899;-85
2022/10/24 02:25:12;;;;;;;19.27;12.30;;;;;;;12.40;100.00;100177.03;3465285;84;26544;-86
2022/10/24 02:30:18;;;;;;;19.65;11.45;;;;;;;12.40;100.00;100177.03;3448779;84;98912;-86
2022/10/24 02:35:26;;;;;;;17.90;10.67;;;;;;;12.53;100.00;100199.70;3457957;84;26079;-86
2022/10/24 02:40:27;;;;;;;20.00;11.57;;;;;;;12.55;100.00;100200.11;3458293;84;98997;-87
2022/10/24 02:45:29;;;;;;;20.83;11.47;;;;;;;12.57;100.00;100199.69;3447093;84;33865;-87
2022/10/24 02:50:31;;;;;;;18.10;10.88;;;;;;;12.58;100.00;100181.94;3446209;82;99293;-88
2022/10/24 02:55:32;;;;;;;19.60;11.63;;;;;;;12.57;100.00;100157.70;3453665;84;26472;-88
2022/10/24 03:00:33;;;;;;;19.27;12.00;;;;;;;12.56;100.00;100107.02;3445098;84;99447;-88
2022/10/24 03:05:34;;;;;;;18.27;10.90;;;;;;;12.53;100.00;100072.72;3473207;84;33517;-87
2022/10/24 03:10:35;;;;;;;20.67;10.67;;;;;;;12.53;100.00;100111.97;3469743;84;99334;-87
2022/10/24 03:15:36;;;;;;;21.70;10.83;;;;;;;12.54;100.00;100119.83;3442669;83;33624;-86
2022/10/24 03:20:37;;;;;;;19.03;11.53;;;;;;;12.55;100.00;100133.86;3452153;84;98896;-86
2022/10/24 03:25:38;;;;;;;20.27;11.17;;;;;;;12.53;100.00;100131.30;3460913;84;33474;-87
2022/10/24 03:30:38;;;;;;;17.93;10.60;;;;;;;12.54;100.00;100137.01;3446547;84;99178;-87
2022/10/24 03:35:40;;;;;;;18.62;10.18;;;;;;;12.54;100.00;100135.02;3451849;84;33461;-87
2022/10/24 03:40:41;;;;;;;17.40;10.17;;;;;;;12.53;100.00;100125.77;3444066;84;99506;-85
2022/10/24 03:45:42;;;;;;;18.00;11.37;;;;;;;12.49;100.00;100134.64;3443707;84;31920;-86
2022/10/24 03:50:43;;;;;;;15.40;9.53;;;;;;;12.55;100.00;100137.99;3458402;84;98866;-87
2022/10/24 03:55:43;;;;;;;17.60;10.57;;;;;;;12.54;100.00;100137.78;3446454;84;32966;-86
2022/10/24 04:00:44;;;;;;;17.63;9.43;;;;;;;12.58;100.00;100135.00;3465066;84;99458;-86
2022/10/24 04:05:46;;;;;;;15.87;9.63;;;;;;;12.58;100.00;100135.00;3444695;84;32973;-86
2022/10/24 04:10:48;;;;;;;14.93;8.83;;;;;;;12.60;100.00;100128.52;3460142;84;98937;-86
2022/10/24 04:15:49;;;;;;;16.97;10.50;;;;;;;12.63;100.00;100129.88;3446815;84;31541;-86
2022/10/24 04:20:50;;;;;;;16.77;10.27;;;;;;;12.65;100.00;100132.25;3453527;84;99441;-87
2022/10/24 04:25:51;;;;;;;18.27;10.47;;;;;;;12.67;100.00;100143.67;3473212;84;31650;-86
2022/10/24 04:30:58;;;;;;;17.33;10.67;;;;;;;12.70;100.00;100154.70;3447304;84;99253;-86
2022/10/24 04:35:59;;;;;;;19.10;11.28;;;;;;;12.72;100.00;100141.89;3462077;84;34373;-86
2022/10/24 04:41:00;;;;;;;22.13;12.20;;;;;;;12.64;100.00;100122.40;3448813;84;99124;-86
2022/10/24 04:46:01;;;;;;;19.67;10.33;;;;;;;12.76;100.00;100136.55;3468895;84;32268;-86
2022/10/24 04:51:02;;;;;;;21.55;11.03;;;;;;;12.76;100.00;100133.78;3445849;83;98788;-86
2022/10/24 04:56:04;;;;;;;17.43;11.43;;;;;;;12.78;100.00;100134.77;3453801;84;31851;-86
2022/10/24 05:01:05;;;;;;;18.97;11.33;;;;;;;12.76;100.00;100147.59;3462440;84;98749;-86
2022/10/24 05:06:06;;;;;;;16.33;11.13;;;;;;;12.77;100.00;100152.53;3454930;84;31622;-86
2022/10/24 05:11:10;;;;;;;17.80;10.87;;;;;;;12.78;100.00;100162.39;3452573;84;99142;-86
2022/10/24 05:16:10;;;;;;;19.83;11.40;;;;;;;12.73;100.00;100156.69;3433688;84;99699;-87
2022/10/24 05:21:10;;;;;;;17.30;10.13;;;;;;;12.72;100.00;100164.78;3452333;83;33028;-86
2022/10/24 05:26:11;;;;;;;16.50;10.13;;;;;;;12.70;100.00;100160.84;3427539;84;99016;-86
2022/10/24 05:31:12;;;;;;;18.17;10.17;;;;;;;12.65;100.00;100164.77;3441862;84;32322;-87
2022/10/24 05:36:13;;;;;;;17.00;10.10;;;;;;;12.61;100.00;100159.07;3432475;84;99159;-87
2022/10/24 05:41:14;;;;;;;16.57;9.60;;;;;;;12.56;100.00;100156.13;3439937;84;31649;-87
2022/10/24 05:46:14;;;;;;;15.20;9.67;;;;;;;12.51;100.00;100154.34;3442588;84;99234;-88
2022/10/24 05:51:15;;;;;;;17.82;9.75;;;;;;;12.43;100.00;100159.08;3393027;85;31690;-88
2022/10/24 05:56:16;;;;;;;16.47;9.33;;;;;;;12.35;100.00;100153.39;3414693;84;102866;-86
2022/10/24 06:01:17;;;;;;;15.73;9.03;;;;;;;12.35;100.00;100153.39;3450435;84;25908;-87
2022/10/24 06:06:19;;;;;;;19.23;10.00;;;;;;;12.33;100.00;100158.48;3424766;84;99413;-87
2022/10/24 06:11:20;;;;;;;16.43;9.03;;;;;;;12.31;100.00;100161.48;3429315;84;25934;-88
2022/10/24 06:16:23;;;;;;;17.63;10.13;;;;;;;12.25;100.00;100148.66;3429352;84;99441;-87
2022/10/24 06:21:24;;;;;;;17.07;10.33;;;;;;;12.24;100.00;100158.70;3446373;84;26572;-87
2022/10/24 06:26:25;;;;;;;17.23;10.23;;;;;;;12.24;100.00;100160.88;3431864;83;99030;-87
2022/10/24 06:31:26;;;;;;;16.17;10.63;;;;;;;12.23;100.00;100166.20;3439408;84;34937;-87
2022/10/24 06:36:27;;;;;;;16.55;10.40;;;;;;;12.24;100.00;100163.64;3432474;84;99869;-86
2022/10/24 06:41:28;;;;;;;17.63;10.33;;;;;;;12.26;100.00;100163.25;3428929;84;34918;-87
2022/10/24 06:46:28;;;;;;;15.55;9.90;;;;;;;12.31;100.00;100172.52;3418885;84;99574;-86
2022/10/24 06:51:29;;;;;;;22.03;12.03;;;;;;;12.31;100.00;100172.52;3426033;84;34937;-87
2022/10/24 06:56:30;;;;;;;17.67;9.90;;;;;;;12.34;100.00;100183.55;3421200;84;99630;-87
2022/10/24 07:01:34;;;;;;;18.07;10.67;;;;;;;12.38;100.00;100185.70;3430920;84;29105;-87
2022/10/24 07:06:35;;;;;;;17.40;11.43;;;;;;;12.42;100.00;100182.34;3418694;84;99135;-87
2022/10/24 07:11:36;;;;;;;17.47;11.07;;;;;;;12.47;100.00;100173.67;3430509;84;29146;-86
2022/10/24 07:16:38;;;;;;;18.25;11.10;;;;;;;12.54;100.00;100175.66;3432524;84;99576;-87
2022/10/24 07:21:39;;;;;;;19.33;11.33;;;;;;;12.62;100.00;100178.01;3374386;84;31115;-86
2022/10/24 07:26:40;;;;;;;21.43;12.07;;;;;;;12.70;100.00;100173.27;3459362;84;99551;-87
2022/10/24 07:31:40;;;;;;;22.67;12.77;;;;;;;12.77;100.00;100176.01;3443755;84;26253;-86
2022/10/24 07:36:41;;;;;;;22.00;13.57;;;;;;;12.85;100.00;100183.88;3440679;84;99822;-85
2022/10/24 07:41:42;;;;;;;21.97;12.37;;;;;;;12.95;100.00;100174.78;3449627;84;32831;-86
2022/10/24 07:46:43;;;;;;;20.83;12.63;;;;;;;13.04;100.00;100171.02;3449826;84;99559;-86
2022/10/24 07:51:44;;;;;;;20.23;11.90;;;;;;;13.12;100.00;100178.11;3321701;86;34666;-85
2022/10/24 07:56:44;;;;;;;21.00;12.78;;;;;;;13.18;100.00;100176.52;3313121;87;99729;-86
2022/10/24 08:01:45;;;;;;;21.97;12.10;;;;;;;13.27;100.00;100189.32;3365073;86;27561;-86
2022/10/24 08:06:46;;;;;;;22.32;11.90;;;;;;;13.36;100.00;100175.07;3447180;84;99500;-87
2022/10/24 08:11:47;;;;;;;21.53;12.13;;;;;;;13.46;100.00;100177.78;3442800;84;26482;-85
2022/10/24 08:16:48;;;;;;;19.10;12.07;;;;;;;13.53;100.00;100179.11;3442144;84;99652;-85
2022/10/24 08:21:51;;;;;;;20.03;13.17;;;;;;;13.67;100.00;100173.52;3446844;84;25926;-85
2022/10/24 08:26:51;;;;;;;19.37;12.45;;;;;;;13.77;100.00;100160.23;3430832;84;99553;-85
2022/10/24 08:31:54;;;;;;;18.80;12.97;;;;;;;13.91;100.00;100164.27;3437024;84;25911;-85
2022/10/24 08:36:55;;;;;;;22.40;13.50;;;;;;;14.11;100.00;100167.33;3437007;84;99722;-85
2022/10/24 08:42:01;;;;;;;19.97;11.97;;;;;;;14.37;100.00;100162.58;3442385;84;29640;-85
2022/10/24 08:47:30;;;;;;;20.50;12.80;;;;;;;14.59;100.00;100174.45;3328622;87;99326;-87
2022/10/24 08:52:36;;;;;;;16.90;12.00;;;;;;;14.77;100.00;100172.91;3371070;85;32518;-86
2022/10/24 08:57:39;;;;;;;18.48;10.93;;;;;;;14.93;100.00;100180.84;3304415;87;99385;-85
2022/10/24 09:02:43;;;;;;;19.20;11.12;;;;;;;15.09;100.00;100185.84;3306546;87;32483;-85
2022/10/24 09:07:46;;;;;;;18.10;12.00;;;;;;;15.19;100.00;100183.52;3358027;85;99260;-86
2022/10/24 09:12:46;;;;;;;19.37;11.83;;;;;;;15.32;100.00;100185.95;3399527;85;31406;-86
2022/10/24 09:17:48;;;;;;;18.73;11.60;;;;;;;15.38;100.00;100185.09;3412200;84;99350;-86
2022/10/24 09:22:49;;;;;;;21.67;11.97;;;;;;;15.48;100.00;100190.34;3470928;83;30627;-87
2022/10/24 09:27:51;;;;;;;22.98;12.20;;;;;;;15.59;100.00;100189.61;3469248;83;99315;-86
2022/10/24 09:32:55;;;;;;;21.63;12.97;;;;;;;15.71;100.00;100175.17;3338021;86;30634;-86
2022/10/24 09:38:18;;;;;;;19.60;12.20;;;;;;;15.92;100.00;100175.64;3407420;84;99434;-87
2022/10/24 09:43:27;;;;;;;19.73;12.73;;;;;;;16.10;100.00;100169.25;3457104;84;32573;-86
2022/10/24 09:48:54;;;;;;;19.40;11.43;;;;;;;16.29;100.00;100175.47;3451008;84;99425;-87
2022/10/24 09:54:06;;;;;;;20.45;12.00;;;;;;;16.50;100.00;100183.49;3465480;84;32410;-86
2022/10/24 09:59:39;;;;;;;20.35;11.00;;;;;;;16.65;100.00;100193.16;3451955;84;99275;-87
2022/10/24 10:04:41;;;;;;;20.40;10.65;;;;;;;16.99;100.00;100195.12;3445531;83;32423;-87
2022/10/24 10:09:56;;;;;;;17.32;10.70;;;;;;;17.33;100.00;100188.69;3391443;84;99338;-88
2022/10/24 10:14:57;;;;;;;17.07;9.95;;;;;;;17.64;100.00;100178.94;3368593;85;32251;-87
2022/10/24 10:19:59;;;;;;;19.95;10.75;;;;;;;17.92;100.00;100174.12;3376479;84;99101;-87
2022/10/24 10:25:00;;;;;;;20.30;11.05;;;;;;;18.07;100.00;100186.52;3405569;85;32560;-86
2022/10/24 10:30:15;;;;;;;17.77;9.10;;;;;;;18.23;100.00;100192.11;3389902;85;98964;-88
2022/10/24 10:35:27;;;;;;;19.10;9.13;;;;;;;18.48;100.00;100186.73;3402307;84;27243;-86
2022/10/24 10:40:46;;;;;;;16.23;8.95;;;;;;;18.69;100.00;100187.59;3394826;84;98912;-86
2022/10/24 10:45:59;;;;;;;17.37;8.83;;;;;;;18.78;100.00;100180.80;3458973;83;33010;-87
2022/10/24 10:51:29;;;;;;;17.35;8.25;;;;;;;18.89;99.48;100160.98;3465053;83;98827;-86
2022/10/24 10:56:53;;;;;;;14.50;7.08;;;;;;;19.02;98.41;100164.00;3462190;83;99391;-87
2022/10/24 11:02:17;;;;;;;14.07;8.78;;;;;;;19.08;97.96;100164.26;3472373;83;32442;-87
2022/10/24 11:07:45;;;;;;;13.10;6.95;;;;;;;19.16;97.05;100167.80;3381013;84;98948;-91
2022/10/24 11:12:46;;;;;;;16.20;7.55;;;;;;;19.23;96.56;100165.47;3446087;84;33855;-87
2022/10/24 11:18:02;;;;;;;14.98;7.53;;;;;;;19.32;96.64;100173.95;3431343;84;98926;-89
2022/10/24 11:23:32;;;;;;;13.00;7.03;;;;;;;19.40;96.28;100164.94;3454780;83;27480;-90
2022/10/24 11:29:10;;;;;;;13.05;7.10;;;;;;;19.40;94.75;100163.55;3453900;83;98920;-89
2022/10/24 11:34:41;;;;;;;15.13;7.37;;;;;;;19.36;94.96;100159.30;3450913;84;33045;-90
2022/10/24 11:39:53;;;;;;;20.62;7.90;;;;;;;19.40;94.45;100160.75;3440895;84;98820;-87
2022/10/24 11:45:14;;;;;;;14.73;7.87;;;;;;;19.39;94.23;100158.40;3450383;84;32453;-88
2022/10/24 11:50:38;;;;;;;16.52;7.50;;;;;;;19.39;93.39;100136.86;3443287;84;98590;-89
2022/10/24 11:55:46;;;;;;;17.23;8.13;;;;;;;19.38;93.25;100144.28;3467517;83;33145;-88
2022/10/24 12:01:11;;;;;;;14.00;7.35;;;;;;;19.43;93.25;100148.72;3469180;83;98582;-88
2022/10/24 12:06:44;;;;;;;17.60;8.28;;;;;;;19.49;93.16;100141.36;3449627;82;98848;-89
2022/10/24 12:12:05;;;;;;;15.13;8.33;;;;;;;19.51;92.53;100133.31;3401425;85;32513;-88
2022/10/24 12:17:41;;;;;;;18.05;8.40;;;;;;;19.54;92.67;100128.25;3457889;84;99064;-87
2022/10/24 12:22:43;;;;;;;21.83;10.37;;;;;;;19.59;92.47;100124.91;3460703;84;32196;-86
2022/10/24 12:28:03;;;;;;;16.95;7.78;;;;;;;19.62;92.18;100126.03;3450441;84;99229;-90
2022/10/24 12:33:25;;;;;;;16.17;8.05;;;;;;;19.65;91.79;100122.33;3431586;84;32531;-88
2022/10/24 12:38:38;;;;;;;16.32;7.20;;;;;;;19.70;91.70;100110.61;3451547;84;98966;-90
2022/10/24 12:43:43;;;;;;;17.65;7.67;;;;;;;19.72;91.36;100105.37;3451906;84;32660;-88
2022/10/24 12:49:01;;;;;;;12.60;7.10;;;;;;;19.75;91.47;100096.89;3455558;84;98955;-88
2022/10/24 12:54:17;;;;;;;14.38;7.33;;;;;;;19.77;91.10;100086.64;3454629;84;33066;-85
2022/10/24 12:59:31;;;;;;;13.32;7.45;;;;;;;19.74;90.22;100093.94;3453479;84;99212;-88
2022/10/24 13:04:49;;;;;;;16.17;6.70;;;;;;;19.76;90.99;100086.48;3476474;84;32574;-87
2022/10/24 13:10:27;;;;;;;16.20;7.85;;;;;;;19.79;90.07;100084.20;3454428;84;98720;-88
2022/10/24 13:15:40;;;;;;;16.40;7.60;;;;;;;19.84;90.50;100083.02;3379349;84;32815;-90
2022/10/24 13:20:44;;;;;;;14.53;6.92;;;;;;;19.88;89.96;100089.28;3447226;84;98986;-86
2022/10/24 13:25:46;;;;;;;14.43;7.00;;;;;;;19.92;89.28;100080.78;3467360;84;33117;-89
2022/10/24 13:30:49;;;;;;;14.75;7.08;;;;;;;19.91;90.08;100080.02;3450298;84;98967;-87
2022/10/24 13:35:51;;;;;;;18.62;7.35;;;;;;;19.94;89.97;100078.34;3458796;84;32446;-90
2022/10/24 13:40:52;;;;;;;16.07;7.05;;;;;;;19.92;89.88;100071.00;3398737;85;98703;-88
2022/10/24 13:45:58;;;;;;;18.70;7.60;;;;;;;19.89;89.88;100064.30;3387411;85;32568;-88
2022/10/24 13:51:22;;;;;;;16.32;7.33;;;;;;;19.88;90.09;100073.12;3340159;87;98506;-88
2022/10/24 13:56:25;;;;;;;19.73;7.23;;;;;;;19.85;90.39;100080.41;3453258;84;98973;-88
2022/10/24 14:01:28;;;;;;;19.92;9.28;;;;;;;19.81;90.48;100095.09;3460483;84;32452;-88
2022/10/24 14:06:32;;;;;;;17.48;8.50;;;;;;;19.76;90.58;100094.86;3439451;84;99127;-89
2022/10/24 14:11:42;;;;;;;17.67;10.10;;;;;;;19.74;90.78;100095.33;3452619;84;32513;-88
2022/10/24 14:16:43;;;;;;;17.82;7.15;;;;;;;19.70;91.09;100088.27;3427278;84;99261;-88
2022/10/24 14:21:45;;;;;;;17.90;8.75;;;;;;;19.67;91.14;100084.36;3443647;84;31907;-89
2022/10/24 14:26:50;;;;;;;15.75;9.00;;;;;;;19.59;90.88;100088.62;3429612;84;99108;-89
2022/10/24 14:32:06;;;;;;;15.30;7.80;;;;;;;19.55;91.20;100092.13;3450540;84;28168;-88
2022/10/24 14:37:18;;;;;;;16.07;6.87;;;;;;;19.49;91.18;100089.72;3433325;84;98985;-88
2022/10/24 14:42:20;;;;;;;19.55;6.75;;;;;;;19.44;91.40;100088.88;3321769;87;32525;-87
2022/10/24 14:47:27;;;;;;;14.18;7.08;;;;;;;19.39;91.58;100096.40;3353954;86;98999;-87
2022/10/24 14:52:41;;;;;;;14.73;6.72;;;;;;;19.31;91.57;100095.06;3344382;86;33188;-88
2022/10/24 14:57:37;;;;;;;13.72;7.45;;;;;;;19.26;91.66;100096.20;3439358;84;99205;-89
2022/10/24 15:02:42;;;;;;;17.57;7.58;;;;;;;19.18;91.68;100091.41;3440664;84;33747;-89
2022/10/24 15:07:43;;;;;;;18.02;7.92;;;;;;;19.11;91.83;100093.02;3456084;82;99278;-89
2022/10/24 15:12:58;;;;;;;14.10;7.05;;;;;;;19.04;92.05;100090.44;3428760;84;31148;-87
2022/10/24 15:18:07;;;;;;;20.70;7.73;;;;;;;18.97;92.18;100094.05;3412689;84;98717;-86
2022/10/24 15:23:29;;;;;;;16.93;7.70;;;;;;;18.88;92.43;100091.10;3443325;84;33066;-87
2022/10/24 15:28:57;;;;;;;14.83;6.72;;;;;;;18.78;92.39;100090.18;3440629;84;98724;-90
2022/10/24 15:33:58;;;;;;;17.82;7.42;;;;;;;18.70;92.62;100095.77;3441321;83;33111;-90
2022/10/24 15:39:04;;;;;;;17.02;7.30;;;;;;;18.61;92.81;100093.44;3439167;83;98893;-87
2022/10/24 15:44:19;;;;;;;16.82;8.38;;;;;;;18.54;92.91;100101.37;3433365;84;27417;-86
2022/10/24 15:49:20;;;;;;;15.58;7.75;;;;;;;18.46;93.19;100104.78;3399338;84;99057;-89
2022/10/24 15:54:22;;;;;;;13.28;7.25;;;;;;;18.40;93.45;100110.72;3444550;84;32294;-87
2022/10/24 15:59:25;;;;;;;15.32;7.85;;;;;;;18.30;93.67;100109.74;3429725;83;99081;-89
2022/10/24 16:04:25;;;;;;;17.85;7.47;;;;;;;18.26;94.01;100100.69;3382793;85;33893;-89
2022/10/24 16:09:28;;;;;;;19.65;6.87;;;;;;;18.20;94.22;100105.22;3388624;84;98703;-89
2022/10/24 16:14:29;;;;;;;17.37;8.58;;;;;;;18.15;94.55;100105.73;3432875;84;32941;-87
2022/10/24 16:19:30;;;;;;;12.23;8.28;;;;;;;18.10;94.84;100100.69;3440189;84;98587;-87
2022/10/24 16:24:30;;;;;;;15.57;7.93;;;;;;;18.06;95.11;100107.58;3449868;84;26743;-89
2022/10/24 16:29:31;;;;;;;15.10;8.18;;;;;;;18.00;95.39;100107.33;3449159;84;98987;-87
2022/10/24 16:34:32;;;;;;;19.45;9.58;;;;;;;17.94;95.73;100116.00;3442455;84;29115;-86
2022/10/24 16:39:33;;;;;;;24.85;14.23;;;;;;;17.90;95.94;100128.44;3430125;84;98493;-89
2022/10/24 16:44:36;;;;;;;25.32;12.35;;;;;;;17.83;96.17;100126.59;3447815;84;27819;-88
2022/10/24 16:49:37;;;;;;;29.15;13.38;;;;;;;17.79;96.59;100139.84;3436904;84;98702;-88
2022/10/24 16:54:38;;;;;;;23.85;12.20;;;;;;;17.75;96.81;100139.13;3435375;83;31025;-87
2022/10/24 16:59:39;;;;;;;18.17;10.80;;;;;;;17.74;97.12;100131.20;3428243;84;98727;-87
2022/10/24 17:04:41;;;;;;;16.93;9.93;;;;;;;17.69;97.35;100135.88;3457880;84;29039;-88
2022/10/24 17:09:42;;;;;;;22.35;11.25;;;;;;;17.65;97.26;100138.75;3411545;84;98633;-88
2022/10/24 17:14:43;;;;;;;21.27;9.75;;;;;;;17.61;97.19;100140.81;3440587;84;28982;-87
2022/10/24 17:19:47;;;;;;;19.20;8.87;;;;;;;17.57;97.23;100142.92;3442351;84;98890;-89
2022/10/24 17:24:47;;;;;;;17.92;8.93;;;;;;;17.55;97.34;100149.50;3441167;83;31708;-89
2022/10/24 17:29:48;;;;;;;19.15;9.15;;;;;;;17.50;97.46;100156.20;3429296;84;99234;-89
2022/10/24 17:34:52;;;;;;;17.36;8.68;;;;;;;17.47;97.59;100159.83;3442441;84;28696;-89
2022/10/24 17:40:23;;;;;;;18.02;9.08;;;;;;;17.43;97.59;100165.47;3437497;83;98565;-89
2022/10/24 17:45:24;;;;;;;18.15;7.87;;;;;;;17.39;97.59;100166.14;3445143;84;33179;-90
2022/10/24 17:50:49;;;;;;;16.70;8.28;;;;;;;17.38;97.57;100156.82;3428749;84;98588;-90
2022/10/24 17:55:50;;;;;;;15.68;7.40;;;;;;;17.25;97.48;100144.16;3446534;84;32428;-88
2022/10/24 18:00:51;;;;;;;20.23;7.75;;;;;;;17.25;97.23;100159.46;3431112;84;99406;-88
2022/10/24 18:05:52;;;;;;;12.58;6.80;;;;;;;17.19;96.99;100158.39;3450270;84;30605;-88
2022/10/24 18:10:53;;;;;;;19.73;7.25;;;;;;;17.11;97.23;100156.95;3423681;84;99078;-88
2022/10/24 18:15:54;;;;;;;18.95;7.65;;;;;;;17.00;96.99;100162.56;3459993;84;31484;-88
2022/10/24 18:21:09;;;;;;;12.00;5.70;;;;;;;16.94;96.91;100169.20;3455395;84;99189;-88
2022/10/24 18:26:13;;;;;;;13.43;6.40;;;;;;;16.87;96.52;100165.77;3451397;84;98749;-87
2022/10/24 18:31:23;;;;;;;11.53;5.12;;;;;;;16.80;96.12;100165.31;3465968;84;33024;-89
2022/10/24 18:36:27;;;;;;;13.58;5.17;;;;;;;16.74;95.73;100162.05;3451084;84;98837;-88
2022/10/24 18:41:47;;;;;;;11.50;5.62;;;;;;;16.70;95.41;100152.39;3457438;84;32467;-89
2022/10/24 18:46:50;;;;;;;17.17;4.92;;;;;;;16.67;95.23;100147.66;3455781;84;99146;-88
2022/10/24 18:52:13;;;;;;;13.20;4.67;;;;;;;16.60;95.20;100139.47;3460254;84;33022;-88
2022/10/24 18:57:25;;;;;;;12.03;4.53;;;;;;;16.54;94.85;100138.39;3424165;84;99486;-88
2022/10/24 19:03:06;;;;;;;9.18;4.33;;;;;;;16.50;94.77;100150.16;3460869;84;32495;-88
2022/10/24 19:08:17;;;;;;;8.60;4.30;;;;;;;16.44;95.00;100156.02;3451002;83;98521;-90
2022/10/24 19:13:18;;;;;;;9.10;4.05;;;;;;;16.38;94.62;100155.50;3436336;84;32511;-88
2022/10/24 19:18:19;;;;;;;12.43;5.13;;;;;;;16.34;95.10;100150.00;3440366;84;98647;-88
2022/10/24 19:23:20;;;;;;;10.47;4.40;;;;;;;16.30;94.50;100156.83;3422508;84;27340;-89
2022/10/24 19:28:21;;;;;;;7.50;3.80;;;;;;;16.27;93.97;100159.05;3413483;84;98765;-89
2022/10/24 19:33:26;;;;;;;9.90;4.13;;;;;;;16.27;93.74;100157.07;3425005;84;28579;-88
2022/10/24 19:38:26;;;;;;;7.58;3.80;;;;;;;16.27;93.67;100157.07;3415511;84;98763;-88
2022/10/24 19:43:31;;;;;;;11.15;4.83;;;;;;;16.29;94.25;100162.98;3417493;85;32557;-88
2022/10/24 19:48:35;;;;;;;14.55;4.92;;;;;;;16.27;93.87;100157.07;3414501;84;99190;-88
2022/10/24 19:53:40;;;;;;;11.57;5.20;;;;;;;16.27;93.45;100164.02;3424530;84;33147;-89
2022/10/24 19:58:42;;;;;;;13.55;7.08;;;;;;;16.26;93.47;100172.17;3378949;84;98756;-89
2022/10/24 20:03:46;;;;;;;20.48;8.13;;;;;;;16.28;93.82;100171.13;3400673;85;33097;-88
2022/10/24 20:08:49;;;;;;;16.42;9.00;;;;;;;16.28;94.29;100168.36;3324070;87;98683;-88
2022/10/24 20:13:50;;;;;;;16.70;8.95;;;;;;;16.25;94.95;100172.58;3452622;83;32559;-88
2022/10/24 20:18:51;;;;;;;16.87;7.83;;;;;;;16.22;95.50;100177.58;3440843;83;99203;-88
2022/10/24 20:23:52;;;;;;;17.00;8.93;;;;;;;16.19;95.96;100181.21;3451517;84;28708;-88
2022/10/24 20:28:55;;;;;;;18.60;9.78;;;;;;;16.17;96.21;100182.21;3446176;84;98948;-89
2022/10/24 20:34:00;;;;;;;19.95;10.53;;;;;;;16.13;96.47;100182.89;3460169;83;32564;-88
2022/10/24 20:39:01;;;;;;;19.52;8.85;;;;;;;16.08;96.61;100193.08;3437401;84;99267;-90
2022/10/24 20:44:03;;;;;;;21.00;10.17;;;;;;;16.00;96.85;100197.95;3439888;84;30746;-89
2022/10/24 20:49:04;;;;;;;19.82;9.45;;;;;;;16.00;96.99;100188.83;3434302;84;99396;-89
2022/10/24 20:54:08;;;;;;;20.30;9.53;;;;;;;15.96;97.08;100197.83;3441033;84;30690;-88
2022/10/24 20:59:14;;;;;;;19.62;9.98;;;;;;;15.92;97.17;100201.24;3439191;84;99996;-93
2022/10/24 21:04:15;;;;;;;18.70;10.38;;;;;;;15.90;97.33;100201.66;3454842;84;32452;-94
2022/10/24 21:09:16;;;;;;;20.90;10.10;;;;;;;15.84;97.39;100208.88;3443375;84;98795;-92
2022/10/24 21:14:19;;;;;;;20.00;9.63;;;;;;;15.76;97.40;100199.06;3426240;84;26816;-93
2022/10/24 21:19:20;;;;;;;15.48;8.78;;;;;;;15.73;97.35;100199.91;3417239;84;99112;-93
2022/10/24 21:24:20;;;;;;;15.50;8.80;;;;;;;15.68;97.42;100205.92;3441877;84;30639;-93
2022/10/24 21:29:24;;;;;;;16.13;7.83;;;;;;;15.61;97.33;100212.95;3421868;84;98753;-92
2022/10/24 21:34:24;;;;;;;24.20;9.00;;;;;;;15.54;97.38;100221.34;3440850;84;29325;-93
2022/10/24 21:39:25;;;;;;;17.10;8.10;;;;;;;15.47;97.24;100218.67;3441556;84;98675;-93
2022/10/24 21:44:25;;;;;;;15.63;7.73;;;;;;;15.40;97.41;100217.97;3409659;85;25987;-92
2022/10/24 21:49:26;;;;;;;15.80;8.60;;;;;;;15.36;97.38;100222.17;3406525;85;98775;-91
2022/10/24 21:54:28;;;;;;;18.53;8.27;;;;;;;15.32;97.36;100217.84;3396341;85;26580;-93
2022/10/24 21:59:29;;;;;;;16.20;9.23;;;;;;;15.30;97.47;100227.16;3333444;87;98735;-89
2022/10/24 22:04:30;;;;;;;16.83;9.63;;;;;;;15.26;97.88;100220.27;3398796;85;26956;-89
2022/10/24 22:09:31;;;;;;;19.73;8.50;;;;;;;15.22;97.92;100235.38;3403463;84;98712;-91
2022/10/24 22:14:31;;;;;;;16.30;8.47;;;;;;;15.16;98.15;100235.03;3412936;85;26284;-90
2022/10/24 22:19:32;;;;;;;16.77;7.95;;;;;;;15.12;98.33;100227.95;3396360;85;98995;-90
2022/10/24 22:24:33;;;;;;;15.43;7.67;;;;;;;15.09;98.41;100227.41;3446213;85;33220;-91
2022/10/24 22:29:34;;;;;;;14.68;7.90;;;;;;;15.05;98.51;100229.42;3432010;84;98769;-90
2022/10/24 22:34:35;;;;;;;14.33;7.53;;;;;;;15.01;98.54;100235.01;3454707;83;33207;-91
2022/10/24 22:39:37;;;;;;;14.83;6.50;;;;;;;14.97;98.71;100244.53;3471624;84;98761;-91
2022/10/24 22:44:39;;;;;;;15.63;7.07;;;;;;;14.93;98.90;100245.19;3451830;83;31337;-89
2022/10/24 22:50:27;;;;;;;17.47;7.50;;;;;;;14.89;99.11;100245.81;3444296;83;99005;-88
2022/10/24 22:55:33;;;;;;;13.22;6.78;;;;;;;14.82;99.27;100238.95;3456307;84;26711;-87
2022/10/24 23:00:35;;;;;;;14.15;7.20;;;;;;;14.79;99.56;100236.99;3444940;84;98896;-87
2022/10/24 23:05:43;;;;;;;12.87;6.83;;;;;;;14.74;99.50;100232.69;3442810;84;25982;-87
2022/10/24 23:10:45;;;;;;;14.43;7.00;;;;;;;14.69;99.71;100242.83;3441926;84;98482;-87